Airfield :
LOGIN :

Register | Disclaimer

   EN    FR    IT 

 










Legend :    VFR   Marginal VFR   IFR   Intensive IFR   Very Intensive IFR
Visi :
Ceiling :
>= 8 km
>= 3000ft
5 to 8 km
1000 to 3000 ft
1500m to 5 km
500 to 1000 ft
800 to 1500m
200 to 500 ft
< 800m
< 200 ft
Symbols :   Thunderstorms  Fog  Heavy snow  Heavy precipitations  Wind > 20 kt
SIGMETs :     Misc.  Thunderstorms  Icing  Turbulence  Mountain Waves  Volcanic Ashes







- Airport Elevation : 53 ft
- IATA code : AGP


LEMG - Malaga

CURRENT METAR :
  • 141430Z 32014KT 9999 FEW050 17/08 Q1021 NOSIG

EXPIRED METARs :
  • 141400Z 30019G29KT 9999 FEW050 17/08 Q1021 NOSIG
  • 141330Z 31014KT 9999 FEW050 17/08 Q1021 NOSIG
  • 141300Z 30017KT 9999 FEW050 16/08 Q1022 NOSIG
  • 141230Z 30019G30KT 9999 FEW050 17/08 Q1023 NOSIG
  • 141200Z 29017KT 9999 FEW050 17/06 Q1024 NOSIG

TAF TAF LEMG
Valid from the 14 at 12:00 until the 15 at 12:00 UTC


141100Z 1412/1512 29017KT CAVOK TX20/1414Z TN10/1506Z
PROB40
TEMPO 1412/1421 30018G28KT
BECMG 1502/1504 29007KT
No reported NOTAMs for that airfield.



MET'MAP, your aeronautical weather chart ! - Copyright ORBIFLY December 2007 - Disclaimer

ORBIFLY MET'MAP TEAM :

Programming & Development : Alexandra Zaïnal
Concept & Development : Baudouin d'Aumeries
Co-Development & Prog : Marc-Olivier Méhu
Technical & hardware support : Manuel Goepfert

Contact : metmap@orbifly.com




SOURCES & CREDITS :

   NOAA